Time;durP1;ratioP1;P1;durP2;ratioP2;P2;SDS_P1;SDS_P2;PMS_P1;PMS_P2;Temp;Humidity;BMP_temperature;BMP_pressure;BME280_temperature;BME280_humidity;BME280_pressure;Samples;Min_cycle;Max_cycle;Signal;HPM_P1;HPM_P2
2023/05/28 00:01:22;;;;;;;14.35;6.45;;;16.00;67.60;;;15.37;53.96;100983.28;5054813;28;20041;-83
2023/05/28 00:03:50;;;;;;;14.40;6.07;;;15.90;67.40;;;15.35;53.95;100981.84;5055910;28;20456;-84
2023/05/28 00:06:17;;;;;;;17.05;6.90;;;15.90;67.50;;;15.32;54.02;100983.13;5051151;28;20052;-84
2023/05/28 00:08:44;;;;;;;14.98;6.35;;;15.80;67.50;;;15.30;54.09;100973.66;5056732;28;20088;-83
2023/05/28 00:11:11;;;;;;;14.35;6.68;;;15.80;67.70;;;15.26;54.35;100972.47;5047435;28;20037;-83
2023/05/28 00:13:40;;;;;;;15.52;6.53;;;15.80;67.90;;;15.22;54.55;100969.44;5036187;28;20315;-84
2023/05/28 00:16:07;;;;;;;10.70;6.38;;;15.70;68.10;;;15.20;54.59;100979.59;5067609;28;20127;-84
2023/05/28 00:18:35;;;;;;;13.63;6.30;;;15.70;68.40;;;15.15;54.54;100966.84;5056480;28;20098;-83
2023/05/28 00:21:02;;;;;;;14.25;6.60;;;15.70;68.40;;;15.14;54.73;100975.16;5043083;28;20045;-84
2023/05/28 00:23:29;;;;;;;13.48;6.63;;;15.70;68.50;;;15.11;54.79;100980.97;5050331;28;20072;-83
2023/05/28 00:25:56;;;;;;;12.25;5.85;;;15.60;68.80;;;15.07;54.69;100974.41;5056465;28;20048;-84
2023/05/28 00:28:24;;;;;;;13.07;6.43;;;15.60;68.70;;;15.05;54.87;100976.50;5048396;28;20563;-84
2023/05/28 00:30:53;;;;;;;12.95;6.55;;;15.60;68.70;;;14.99;54.92;100972.88;5033267;28;20111;-83
2023/05/28 00:33:20;;;;;;;15.70;6.57;;;15.50;68.80;;;14.96;55.10;100975.19;5031961;28;20049;-83
2023/05/28 00:35:47;;;;;;;11.02;6.20;;;15.50;69.00;;;14.93;55.01;100973.75;5032260;28;20160;-83
2023/05/28 00:38:15;;;;;;;15.15;6.78;;;15.40;68.80;;;14.90;55.04;100968.88;5032527;28;20060;-83
2023/05/28 00:40:45;;;;;;;13.02;6.90;;;15.40;69.00;;;14.88;55.02;100966.41;5055400;28;20119;-83
2023/05/28 00:43:12;;;;;;;18.63;6.95;;;15.40;69.10;;;14.83;55.18;100963.56;5024678;28;20041;-85
2023/05/28 00:45:39;;;;;;;13.10;6.65;;;15.30;69.10;;;14.80;55.26;100964.03;5058262;28;20045;-85
2023/05/28 00:48:08;;;;;;;14.00;6.68;;;15.30;69.30;;;14.79;55.35;100969.66;5039476;28;20131;-83
2023/05/28 00:50:38;;;;;;;12.65;6.43;;;15.30;69.40;;;14.76;55.56;100964.72;5034211;28;20064;-85
2023/05/28 00:53:06;;;;;;;13.75;6.47;;;15.30;69.50;;;14.72;55.43;100964.34;5048136;28;20049;-83
2023/05/28 00:55:33;;;;;;;14.30;6.80;;;15.20;69.70;;;14.68;55.55;100961.28;5049070;28;20051;-83
2023/05/28 00:58:05;;;;;;;13.02;6.60;;;15.20;69.70;;;14.64;55.40;100962.81;5027445;28;20049;-84
2023/05/28 01:00:33;;;;;;;19.63;7.28;;;15.20;69.70;;;14.62;55.63;100956.00;5031195;28;20041;-83
2023/05/28 01:03:00;;;;;;;12.05;6.30;;;15.10;69.60;;;14.59;55.69;100959.13;5050198;28;20480;-85
2023/05/28 01:05:31;;;;;;;11.90;6.55;;;15.10;69.80;;;14.56;55.73;100962.28;5056235;28;20676;-84
2023/05/28 01:08:00;;;;;;;17.52;6.68;;;15.00;69.90;;;14.53;55.68;100963.53;5053577;28;20501;-84
2023/05/28 01:10:28;;;;;;;13.68;7.28;;;15.00;69.90;;;14.51;55.90;100964.81;5047812;28;20037;-84
2023/05/28 01:12:56;;;;;;;13.02;6.50;;;15.00;70.00;;;14.48;55.79;100966.06;5047580;28;20542;-84
2023/05/28 01:15:24;;;;;;;13.70;6.28;;;15.00;70.10;;;14.46;56.02;100964.66;5028790;28;20045;-83
2023/05/28 01:17:58;;;;;;;15.18;7.13;;;14.90;70.20;;;14.43;56.08;100961.34;5030363;28;20049;-84
2023/05/28 01:20:28;;;;;;;13.77;6.60;;;14.90;70.30;;;14.40;55.82;100963.69;5047119;28;20052;-84
2023/05/28 01:23:03;;;;;;;12.18;7.13;;;14.80;70.10;;;14.36;55.89;100960.63;5045125;28;20044;-85
2023/05/28 01:25:33;;;;;;;15.68;7.22;;;14.90;70.40;;;14.33;56.00;100955.69;5032446;28;20129;-84
2023/05/28 01:28:02;;;;;;;13.52;7.00;;;14.80;70.10;;;14.32;55.99;100955.94;5025550;28;20048;-83
2023/05/28 01:30:32;;;;;;;14.65;7.43;;;14.80;70.30;;;14.28;56.01;100962.78;5038358;28;20077;-83
2023/05/28 01:33:00;;;;;;;13.27;6.85;;;14.80;70.30;;;14.26;56.20;100956.81;5032429;28;20045;-85
2023/05/28 01:35:27;;;;;;;13.43;6.25;;;14.80;70.50;;;14.22;56.22;100959.13;5031537;28;20136;-84
2023/05/28 01:37:57;;;;;;;12.52;6.65;;;14.70;70.60;;;14.20;56.36;100957.69;5048455;28;20452;-83
2023/05/28 01:40:26;;;;;;;15.38;6.97;;;14.70;70.70;;;14.17;56.32;100949.06;5031314;28;20554;-84
2023/05/28 01:42:56;;;;;;;12.65;7.28;;;14.70;70.70;;;14.14;56.55;100944.13;5051691;28;20045;-83
2023/05/28 01:45:25;;;;;;;12.32;7.05;;;14.60;70.90;;;14.12;56.57;100940.06;5049222;28;20224;-84
2023/05/28 01:47:54;;;;;;;15.18;6.25;;;14.60;70.90;;;14.10;56.69;100945.66;5033800;28;20045;-87
2023/05/28 01:50:22;;;;;;;16.02;7.50;;;14.60;71.10;;;14.06;56.52;100949.00;5027518;28;20045;-85
2023/05/28 01:52:49;;;;;;;13.77;6.68;;;14.60;71.00;;;14.02;56.46;100935.19;5039921;28;20052;-83
2023/05/28 01:55:16;;;;;;;14.57;7.47;;;14.50;71.10;;;14.01;56.68;100935.44;5040549;28;20045;-84
2023/05/28 01:57:45;;;;;;;13.80;7.35;;;14.50;71.30;;;13.98;56.50;100928.63;5039516;28;20793;-84
2023/05/28 02:00:15;;;;;;;12.45;6.70;;;14.50;71.30;;;13.96;56.54;100929.88;5044077;28;20053;-83
2023/05/28 02:02:43;;;;;;;13.85;7.47;;;14.40;71.10;;;13.94;56.66;100930.13;5044203;28;20440;-83
2023/05/28 02:05:12;;;;;;;15.40;7.05;;;14.40;71.30;;;13.93;56.54;100930.34;5047663;28;20084;-82
2023/05/28 02:07:39;;;;;;;15.05;6.85;;;14.40;71.40;;;13.89;56.62;100930.78;5043301;28;20571;-84
2023/05/28 02:10:08;;;;;;;16.42;6.78;;;14.40;71.40;;;13.87;56.69;100935.56;5030379;28;20501;-85
2023/05/28 02:12:37;;;;;;;13.07;7.18;;;14.30;71.30;;;13.85;56.80;100931.44;5054981;28;20726;-83
2023/05/28 02:15:06;;;;;;;11.75;6.75;;;14.30;71.50;;;13.81;56.92;100936.44;5048101;28;20416;-85
2023/05/28 02:17:35;;;;;;;15.48;7.70;;;14.30;71.50;;;13.79;57.10;100927.78;5025695;28;20090;-83
2023/05/28 02:20:04;;;;;;;14.82;7.30;;;14.30;71.60;;;13.77;56.91;100923.72;5030509;28;20448;-83
2023/05/28 02:22:31;;;;;;;13.73;6.60;;;14.20;71.70;;;13.74;56.86;100927.63;5040180;28;20417;-84
2023/05/28 02:24:58;;;;;;;13.10;7.22;;;14.20;71.70;;;13.72;57.04;100923.53;5048777;28;20037;-85
2023/05/28 02:27:25;;;;;;;12.90;7.03;;;14.20;71.80;;;13.68;57.01;100927.69;5047546;28;20128;-83
2023/05/28 02:29:52;;;;;;;12.10;7.35;;;14.20;71.80;;;13.67;57.05;100926.06;5053485;28;20044;-83
2023/05/28 02:32:20;;;;;;;13.60;7.03;;;14.20;71.70;;;13.64;56.96;100932.69;5043751;28;20460;-83
2023/05/28 02:34:48;;;;;;;14.05;6.93;;;14.10;71.90;;;13.62;57.27;100934.78;5043690;28;20125;-83
2023/05/28 02:37:16;;;;;;;13.80;7.25;;;14.10;72.00;;;13.60;57.37;100931.47;5056342;28;20045;-83
2023/05/28 02:39:43;;;;;;;14.63;6.88;;;14.10;72.10;;;13.59;57.22;100935.19;5024316;28;20051;-85
2023/05/28 02:42:12;;;;;;;10.95;6.60;;;14.10;72.20;;;13.58;57.24;100930.88;5044483;23;20142;-76
2023/05/28 02:44:39;;;;;;;14.70;7.72;;;14.00;72.10;;;13.57;57.38;100929.25;5027107;28;20685;-76
2023/05/28 02:47:07;;;;;;;17.42;7.55;;;14.00;72.30;;;13.54;57.22;100930.50;5020379;28;20118;-76
2023/05/28 02:49:35;;;;;;;13.60;7.03;;;14.00;72.10;;;13.53;57.38;100933.41;5027132;28;20049;-76
2023/05/28 02:52:04;;;;;;;13.02;7.10;;;14.00;72.20;;;13.51;57.21;100927.41;5021355;28;20084;-76
2023/05/28 02:54:38;;;;;;;17.85;7.28;;;14.00;72.30;;;13.48;57.59;100923.34;5002308;28;20099;-76
2023/05/28 02:57:05;;;;;;;11.85;6.93;;;14.00;72.30;;;13.46;57.52;100916.53;5027132;28;20107;-76
2023/05/28 02:59:33;;;;;;;14.23;6.97;;;13.90;72.50;;;13.45;57.55;100918.41;5011877;28;20045;-77
2023/05/28 03:02:00;;;;;;;15.05;7.45;;;13.90;72.60;;;13.43;57.63;100922.34;5008470;28;20560;-76
2023/05/28 03:04:28;;;;;;;14.20;7.30;;;13.90;72.50;;;13.41;57.36;100922.56;5003923;28;20054;-76
2023/05/28 03:06:55;;;;;;;12.10;7.13;;;13.90;72.50;;;13.40;57.43;100928.97;5012640;28;20506;-76
2023/05/28 03:09:24;;;;;;;12.00;7.20;;;13.90;72.60;;;13.37;57.46;100926.69;5024331;28;20442;-76
2023/05/28 03:11:52;;;;;;;13.07;7.10;;;13.90;72.60;;;13.33;57.49;100937.06;5023891;28;20468;-76
2023/05/28 03:14:19;;;;;;;13.25;7.25;;;13.80;72.40;;;13.32;57.43;100931.91;5009704;28;20049;-76
2023/05/28 03:16:47;;;;;;;15.18;7.70;;;13.80;72.30;;;13.30;57.33;100942.84;5010508;28;20057;-76
2023/05/28 03:19:23;;;;;;;14.23;7.35;;;13.80;72.60;;;13.28;57.52;100946.78;5009860;28;20081;-76
2023/05/28 03:21:51;;;;;;;13.43;7.55;;;13.80;72.60;;;13.26;57.57;100941.63;5005782;28;20141;-76
2023/05/28 03:24:20;;;;;;;13.15;7.72;;;13.70;72.60;;;13.25;57.57;100948.03;5008684;28;20052;-76
2023/05/28 03:26:53;;;;;;;13.02;7.45;;;13.80;72.70;;;13.23;57.74;100942.09;5009463;28;20136;-76
2023/05/28 03:29:23;;;;;;;14.38;7.30;;;13.70;72.80;;;13.22;57.66;100945.78;5010168;28;20057;-76
2023/05/28 03:32:05;;;;;;;15.27;7.97;;;13.70;72.90;;;13.22;57.80;100948.44;5018284;28;20037;-76
2023/05/28 03:34:33;;;;;;;13.27;7.20;;;13.70;72.90;;;13.21;57.79;100948.66;5005027;28;20127;-76
2023/05/28 03:37:00;;;;;;;14.98;7.53;;;13.70;73.00;;;13.20;57.89;100936.31;5032036;28;20073;-76
2023/05/28 03:39:28;;;;;;;13.32;7.65;;;13.60;72.90;;;13.18;58.11;100936.53;5022236;28;20095;-76
2023/05/28 03:41:57;;;;;;;13.82;7.47;;;13.60;73.00;;;13.18;58.06;100941.88;5018689;28;20057;-76
2023/05/28 03:44:27;;;;;;;14.68;8.13;;;13.60;73.30;;;13.16;58.71;100938.59;5013155;28;20099;-76
2023/05/28 03:46:54;;;;;;;13.32;7.50;;;13.60;73.50;;;13.14;58.39;100938.00;5030906;28;20096;-76
2023/05/28 03:49:21;;;;;;;13.85;7.60;;;13.60;73.30;;;13.13;58.50;100939.03;5031582;28;20049;-76
2023/05/28 03:51:49;;;;;;;16.05;7.93;;;13.60;73.50;;;13.13;58.33;100939.03;5012365;28;20061;-76
2023/05/28 03:54:17;;;;;;;14.50;8.25;;;13.60;73.40;;;13.14;58.59;100946.84;5019698;28;20136;-76
2023/05/28 03:56:46;;;;;;;17.27;8.60;;;13.60;73.70;;;13.15;58.64;100942.31;5013297;28;20468;-76
2023/05/28 03:59:14;;;;;;;14.32;8.27;;;13.60;73.90;;;13.16;58.85;100949.28;5012725;28;20813;-76
2023/05/28 04:01:42;;;;;;;16.10;7.88;;;13.60;73.90;;;13.16;58.88;100954.66;5013413;28;20048;-76
2023/05/28 04:04:09;;;;;;;14.55;7.43;;;13.60;74.00;;;13.17;59.06;100948.25;5029991;28;20052;-76
2023/05/28 04:06:36;;;;;;;15.93;8.18;;;13.60;74.10;;;13.17;59.18;100950.94;5019171;28;20143;-76
2023/05/28 04:09:04;;;;;;;14.38;7.40;;;13.60;74.30;;;13.17;59.12;100945.56;5033314;28;20087;-76
2023/05/28 04:11:34;;;;;;;14.13;8.27;;;13.60;74.30;;;13.18;59.36;100944.56;5019956;28;20099;-76
2023/05/28 04:14:02;;;;;;;13.68;7.78;;;13.60;74.50;;;13.17;59.56;100945.56;4999580;28;20145;-76
2023/05/28 04:16:31;;;;;;;12.73;7.93;;;13.60;74.70;;;13.18;59.69;100944.56;5012775;28;20042;-76
2023/05/28 04:19:00;;;;;;;14.35;8.13;;;13.60;74.80;;;13.18;59.68;100949.09;5012283;28;20589;-76
2023/05/28 04:21:28;;;;;;;13.02;8.15;;;13.70;75.10;;;13.17;60.06;100955.47;5011592;28;20103;-76
2023/05/28 04:23:56;;;;;;;13.60;7.90;;;13.70;75.40;;;13.17;59.96;100953.59;5013457;28;20049;-76
2023/05/28 04:26:23;;;;;;;13.20;7.85;;;13.60;75.30;;;13.17;60.06;100948.25;5012759;28;20136;-76
2023/05/28 04:28:52;;;;;;;15.40;8.55;;;13.70;75.80;;;13.17;60.18;100945.56;5028778;28;20084;-76
2023/05/28 04:31:20;;;;;;;16.00;7.97;;;13.70;75.80;;;13.20;60.35;100947.84;5025361;28;20037;-76
2023/05/28 04:33:51;;;;;;;16.63;8.48;;;13.70;75.70;;;13.23;60.68;100958.16;5017969;28;20049;-76
2023/05/28 04:36:19;;;;;;;14.57;7.93;;;13.70;75.90;;;13.28;60.82;100958.31;5032658;28;20140;-76
2023/05/28 04:38:46;;;;;;;13.25;7.93;;;13.80;76.60;;;13.32;61.30;100956.84;5023454;28;20137;-76
2023/05/28 04:41:14;;;;;;;14.18;8.55;;;13.80;76.80;;;13.38;61.47;100955.97;5011051;28;20045;-76
2023/05/28 04:43:43;;;;;;;14.93;8.98;;;13.90;77.00;;;13.49;61.89;100951.78;5016093;28;20502;-76
2023/05/28 04:46:11;;;;;;;14.45;8.15;;;14.00;77.60;;;13.62;61.91;100954.34;5026075;28;20046;-76
2023/05/28 04:48:38;;;;;;;16.05;8.68;;;14.10;77.70;;;13.79;61.74;100951.09;5015852;28;20055;-76
2023/05/28 04:51:08;;;;;;;16.17;8.50;;;14.30;77.60;;;13.93;62.04;100962.53;5009968;28;20515;-76
2023/05/28 04:53:36;;;;;;;15.57;8.00;;;14.40;78.00;;;14.05;62.07;100963.41;5022796;28;20045;-76
2023/05/28 04:56:04;;;;;;;13.45;7.60;;;14.50;78.00;;;14.18;61.89;100963.28;5012520;28;20059;-76
2023/05/28 04:58:32;;;;;;;15.75;7.90;;;14.60;77.90;;;14.29;61.26;100962.53;5027032;28;20414;-76
2023/05/28 05:00:59;;;;;;;13.15;7.68;;;14.70;77.40;;;14.40;61.77;100958.31;5010137;28;20072;-76
2023/05/28 05:03:28;;;;;;;12.63;8.13;;;14.80;78.00;;;14.56;61.82;100962.28;5033046;28;20053;-74
2023/05/28 05:05:56;;;;;;;16.33;8.23;;;15.00;78.10;;;14.67;62.03;100956.97;5012299;28;20066;-76
2023/05/28 05:08:24;;;;;;;16.92;8.27;;;15.10;78.20;;;14.79;60.80;100962.41;5046212;28;20081;-76
2023/05/28 05:10:51;;;;;;;12.30;7.72;;;15.30;77.20;;;14.93;60.42;100969.25;5010233;28;20069;-76
2023/05/28 05:13:19;;;;;;;14.38;7.90;;;15.40;77.20;;;15.06;61.05;100957.47;5016811;28;20052;-76
2023/05/28 05:15:46;;;;;;;16.45;8.90;;;15.50;76.90;;;15.20;59.89;100961.59;5008950;28;20502;-76
2023/05/28 05:18:14;;;;;;;17.10;8.60;;;15.70;75.80;;;15.33;59.53;100957.91;5012946;28;20479;-76
2023/05/28 05:20:41;;;;;;;13.25;8.02;;;15.80;75.40;;;15.46;59.62;100963.06;5024679;28;20069;-77
2023/05/28 05:23:09;;;;;;;15.95;8.30;;;16.00;75.60;;;15.59;59.19;100963.91;5025292;28;20110;-76
2023/05/28 05:25:37;;;;;;;15.45;8.40;;;16.10;75.00;;;15.70;58.67;100965.81;5049997;28;20460;-76
2023/05/28 05:28:05;;;;;;;16.08;8.85;;;16.20;74.30;;;15.82;58.13;100961.25;5015031;28;20396;-76
2023/05/28 05:30:33;;;;;;;15.93;8.70;;;16.30;73.90;;;15.92;58.31;100966.88;5007508;28;20048;-76
2023/05/28 05:33:00;;;;;;;20.80;11.30;;;16.40;73.70;;;16.02;57.32;100970.84;5023043;28;20045;-76
2023/05/28 05:35:31;;;;;;;16.07;9.83;;;16.60;72.70;;;16.13;57.16;100975.41;5010341;28;20524;-76
2023/05/28 05:38:27;;;;;;;17.45;10.32;;;16.60;72.50;;;16.26;56.65;100982.44;5027123;28;20088;-76
2023/05/28 05:41:28;;;;;;;18.23;10.27;;;16.80;71.70;;;16.39;56.06;100977.56;5010082;28;20107;-77
2023/05/28 05:44:08;;;;;;;18.63;10.75;;;16.90;71.40;;;16.49;55.81;100979.66;5016371;28;20506;-77
2023/05/28 05:46:36;;;;;;;17.58;10.38;;;17.00;70.80;;;16.59;56.17;100977.22;5011135;28;20132;-79
2023/05/28 05:49:04;;;;;;;16.38;9.80;;;17.10;71.30;;;16.71;56.00;100985.25;5010024;28;20116;-77
2023/05/28 05:51:32;;;;;;;19.15;10.20;;;17.20;71.00;;;16.79;55.25;100976.81;5010278;28;20136;-75
2023/05/28 05:53:59;;;;;;;17.02;9.88;;;17.30;70.00;;;16.89;55.18;100985.09;5029956;28;20056;-76
2023/05/28 05:56:28;;;;;;;18.17;10.23;;;17.40;70.10;;;17.01;55.36;100981.53;5031046;28;20513;-75
2023/05/28 05:58:56;;;;;;;25.08;10.68;;;17.50;70.30;;;17.10;54.36;100983.59;5011264;28;20139;-74
2023/05/28 06:01:23;;;;;;;20.65;10.10;;;17.60;68.90;;;17.19;55.64;100984.84;5007475;28;20049;-74
2023/05/28 06:03:50;;;;;;;22.85;10.82;;;17.70;70.30;;;17.31;54.80;100983.94;5032360;28;20111;-73
2023/05/28 06:06:49;;;;;;;20.05;10.85;;;17.90;69.50;;;17.39;53.72;100981.69;5022376;28;20045;-75
2023/05/28 06:09:36;;;;;;;21.90;11.30;;;17.90;68.10;;;17.48;53.50;100976.72;5029439;28;20063;-75
2023/05/28 06:12:10;;;;;;;24.10;11.30;;;18.00;67.80;;;17.56;53.13;100964.69;5009297;28;20050;-73
2023/05/28 06:14:38;;;;;;;19.23;11.20;;;18.10;67.20;;;17.65;53.99;100971.31;5011003;28;20827;-75
2023/05/28 06:17:05;;;;;;;21.23;11.30;;;18.20;68.30;;;17.72;52.87;100966.56;5009223;28;20576;-74
2023/05/28 06:19:33;;;;;;;20.65;11.52;;;18.30;67.00;;;17.80;53.54;100966.16;5002617;28;20640;-74
2023/05/28 06:22:01;;;;;;;20.48;10.70;;;18.40;67.70;;;17.89;53.71;100961.19;5031400;28;20556;-75
2023/05/28 06:24:30;;;;;;;24.30;12.30;;;18.40;68.00;;;17.98;52.40;100967.78;5009507;28;20060;-74
2023/05/28 06:26:58;;;;;;;20.70;11.98;;;18.50;66.40;;;18.08;52.54;100973.34;5005802;28;20050;-75
2023/05/28 06:29:26;;;;;;;22.73;11.85;;;18.60;66.50;;;18.14;51.50;100969.63;5009761;28;20048;-75
2023/05/28 06:31:54;;;;;;;19.42;11.02;;;18.70;65.20;;;18.20;50.74;100975.91;5020179;28;20100;-75
2023/05/28 06:34:21;;;;;;;22.40;11.73;;;18.70;64.20;;;18.28;52.04;100962.00;5018431;28;20065;-75
2023/05/28 06:36:49;;;;;;;21.63;11.13;;;18.80;65.70;;;18.37;51.88;100965.09;5008995;28;20054;-75
2023/05/28 06:39:17;;;;;;;19.65;10.05;;;18.90;65.40;;;18.45;51.62;100957.38;5026373;28;20045;-74
2023/05/28 06:41:47;;;;;;;18.92;10.55;;;19.00;65.10;;;18.53;51.63;100967.72;5009741;28;20049;-75
2023/05/28 06:44:36;;;;;;;25.67;10.85;;;19.10;65.30;;;18.60;50.48;100964.84;5026332;28;20057;-75
2023/05/28 06:47:13;;;;;;;19.92;11.23;;;19.20;63.80;;;18.65;50.77;100974.88;5019675;28;20509;-76
2023/05/28 06:49:40;;;;;;;22.38;11.70;;;19.20;64.20;;;18.65;50.14;100967.59;5012034;28;20052;-76
2023/05/28 06:52:08;;;;;;;20.08;10.63;;;19.20;63.20;;;18.64;50.22;100974.06;5024103;28;20048;-76
2023/05/28 06:54:36;;;;;;;22.63;11.13;;;19.20;63.50;;;18.64;50.52;100973.22;5006444;28;20061;-74
2023/05/28 06:57:03;;;;;;;19.27;10.10;;;19.30;63.80;;;18.70;50.83;100983.09;5009666;28;20076;-77
2023/05/28 06:59:47;;;;;;;18.40;9.90;;;19.30;64.20;;;18.80;50.91;100976.97;5001268;28;20577;-74
2023/05/28 07:02:53;;;;;;;25.00;9.82;;;19.40;64.00;;;18.89;51.27;100984.38;5005038;28;20049;-74
2023/05/28 07:05:47;;;;;;;17.77;9.43;;;19.50;64.60;;;18.92;50.64;100978.44;5005521;28;20061;-79
2023/05/28 07:08:14;;;;;;;20.45;8.85;;;19.50;63.80;;;18.99;49.77;100978.28;5012647;28;20136;-75
2023/05/28 07:10:41;;;;;;;19.20;7.93;;;19.60;62.50;;;19.07;49.50;100987.78;5010025;28;20676;-74
2023/05/28 07:13:09;;;;;;;15.15;7.45;;;19.70;62.40;;;19.10;47.83;100990.81;5012233;28;20056;-76
2023/05/28 07:15:38;;;;;;;17.38;7.55;;;19.70;59.80;;;19.15;48.10;100987.34;5007071;28;20421;-75
2023/05/28 07:18:05;;;;;;;17.90;7.35;;;19.70;60.20;;;19.22;47.54;100987.94;4993136;28;20041;-76
2023/05/28 07:20:32;;;;;;;16.20;6.97;;;19.80;59.70;;;19.27;47.35;100994.22;5004166;28;20160;-75
2023/05/28 07:23:11;;;;;;;15.32;6.88;;;19.90;59.30;;;19.28;46.05;101001.28;5006747;28;20053;-75
2023/05/28 07:25:39;;;;;;;13.48;6.05;;;20.00;57.60;;;19.33;46.71;100995.09;5011230;28;20043;-76
2023/05/28 07:28:06;;;;;;;14.20;6.78;;;20.00;58.30;;;19.38;46.85;100997.84;5011469;28;20605;-76
2023/05/28 07:30:35;;;;;;;15.85;6.22;;;20.00;58.00;;;19.43;46.72;100995.19;5011515;28;20069;-76
2023/05/28 07:33:07;;;;;;;15.00;5.93;;;20.10;58.50;;;19.52;46.51;100992.81;5008074;28;20195;-76
2023/05/28 07:35:34;;;;;;;13.38;6.20;;;20.20;58.20;;;19.61;45.62;100993.19;5011602;28;20045;-76
2023/05/28 07:38:02;;;;;;;10.77;5.80;;;20.20;57.40;;;19.68;45.73;100986.50;5007366;28;20060;-76
2023/05/28 07:40:30;;;;;;;13.77;6.05;;;20.30;57.40;;;19.79;46.99;100995.50;5009293;28;20136;-74
2023/05/28 07:43:05;;;;;;;13.70;6.15;;;20.40;58.80;;;19.87;45.31;100995.03;5010154;28;20520;-73
2023/05/28 07:45:32;;;;;;;15.82;6.93;;;20.50;56.70;;;19.95;44.21;101002.66;5011844;28;20175;-76
2023/05/28 07:48:01;;;;;;;14.93;6.40;;;20.60;55.30;;;20.01;45.65;100992.69;5009968;28;20733;-76
2023/05/28 07:50:51;;;;;;;16.35;6.53;;;20.70;57.00;;;20.10;44.96;100998.41;5025640;28;20332;-75
2023/05/28 07:53:41;;;;;;;12.65;6.78;;;20.70;56.10;;;20.16;44.29;100995.50;5023650;28;20057;-75
2023/05/28 07:56:11;;;;;;;15.30;6.35;;;20.80;55.30;;;20.22;44.09;100993.63;5007343;28;20640;-75
2023/05/28 07:58:45;;;;;;;16.92;6.68;;;20.80;54.90;;;20.28;44.51;100996.09;5028435;28;20045;-75
2023/05/28 08:01:13;;;;;;;12.73;6.47;;;20.90;55.70;;;20.35;43.40;100982.31;5006967;28;20530;-76
2023/05/28 08:03:41;;;;;;;16.27;6.68;;;21.00;54.50;;;20.39;43.22;100996.13;5007886;28;20052;-74
2023/05/28 08:06:10;;;;;;;13.13;5.50;;;21.00;54.70;;;20.40;44.27;100984.22;5011138;28;20068;-74
2023/05/28 08:08:40;;;;;;;14.63;6.22;;;21.00;55.20;;;20.47;45.98;100982.13;5011640;28;20053;-74
2023/05/28 08:11:10;;;;;;;13.17;5.33;;;21.10;57.10;;;20.49;43.74;100986.19;5008303;28;20045;-74
2023/05/28 08:13:39;;;;;;;12.68;5.15;;;21.10;54.80;;;20.53;44.90;100986.47;5006827;28;20414;-74
2023/05/28 08:16:06;;;;;;;12.85;5.28;;;21.10;56.00;;;20.56;44.34;100986.78;5005180;28;20049;-74
2023/05/28 08:18:53;;;;;;;10.25;4.95;;;21.20;55.30;;;20.60;43.69;100988.97;5010057;28;20573;-73
2023/05/28 08:21:21;;;;;;;10.77;5.25;;;21.20;54.70;;;20.61;43.18;100983.25;5024647;28;20057;-75
2023/05/28 08:23:49;;;;;;;11.63;4.90;;;21.30;54.10;;;20.67;43.25;100984.91;5007069;28;20096;-74
2023/05/28 08:26:16;;;;;;;11.50;5.10;;;21.40;54.40;;;20.69;42.92;100984.63;5002545;28;20052;-74
2023/05/28 08:28:43;;;;;;;14.27;5.15;;;21.30;53.60;;;20.62;41.59;100970.53;5006790;28;20569;-74
2023/05/28 08:31:11;;;;;;;13.50;4.85;;;21.30;51.80;;;20.65;42.42;100978.94;5024192;28;20052;-78
2023/05/28 08:33:54;;;;;;;9.82;5.00;;;21.30;53.30;;;20.71;41.63;100977.88;5002867;28;20053;-77
2023/05/28 08:36:22;;;;;;;10.05;4.85;;;21.40;51.90;;;20.77;41.78;100970.56;5026483;28;20053;-76
2023/05/28 08:38:54;;;;;;;10.60;4.57;;;21.40;52.50;;;20.77;41.75;100965.97;5010098;28;20131;-77
2023/05/28 08:41:22;;;;;;;16.63;4.65;;;21.40;52.10;;;20.80;41.64;100964.63;5028857;22;20044;-86
2023/05/28 08:43:49;;;;;;;8.75;4.55;;;21.40;52.30;;;20.86;43.15;100966.25;5026919;28;20045;-83
2023/05/28 08:46:19;;;;;;;12.38;5.07;;;21.50;54.20;;;20.91;42.19;100960.03;5025001;28;20040;-83
2023/05/28 08:49:11;;;;;;;14.15;5.07;;;21.60;52.60;;;20.95;41.21;100967.38;5040123;28;20053;-84
2023/05/28 08:51:42;;;;;;;10.45;4.10;;;21.60;51.40;;;20.98;40.64;100961.38;5031205;28;20048;-85
2023/05/28 08:54:09;;;;;;;11.05;4.38;;;21.60;50.70;;;20.99;40.63;100954.91;5028620;28;20053;-85
2023/05/28 08:56:40;;;;;;;9.10;4.30;;;21.60;50.60;;;21.01;40.91;100950.03;5027000;28;20053;-84
2023/05/28 08:59:10;;;;;;;11.25;4.55;;;21.70;51.20;;;21.03;41.13;100947.88;5024270;28;20056;-84
2023/05/28 09:01:39;;;;;;;9.52;3.92;;;21.70;51.70;;;21.05;41.02;100942.97;5030220;28;20045;-85
2023/05/28 09:04:11;;;;;;;11.27;4.55;;;21.70;51.20;;;21.11;40.54;100948.41;5027296;28;20055;-85
2023/05/28 09:06:43;;;;;;;10.60;4.45;;;21.80;50.30;;;21.10;40.68;100939.47;5029822;28;20056;-86
2023/05/28 09:09:18;;;;;;;11.30;4.50;;;21.80;50.70;;;21.13;41.60;100943.50;5030190;28;20055;-84
2023/05/28 09:11:48;;;;;;;11.23;5.05;;;21.80;51.80;;;21.15;40.63;100941.38;5044323;28;20516;-85
2023/05/28 09:14:20;;;;;;;7.75;3.85;;;21.80;50.30;;;21.19;41.12;100934.31;5027062;28;20049;-84
2023/05/28 09:16:49;;;;;;;13.55;4.30;;;21.90;50.80;;;21.26;40.93;100937.56;5043403;28;20080;-84
2023/05/28 09:19:20;;;;;;;;;;;22.00;51.10;;;21.26;40.44;100932.13;5028145;28;20048;-84
2023/05/28 09:21:59;;;;;;;13.88;4.90;;;22.00;50.20;;;21.24;40.13;100934.31;5023212;28;19924;-84
2023/05/28 09:24:35;;;;;;;9.85;4.22;;;21.90;50.10;;;21.25;40.01;100927.81;5029931;28;20037;-85
2023/05/28 09:27:22;;;;;;;12.32;4.43;;;22.00;49.90;;;21.24;40.69;100921.56;5018963;28;20152;-83
2023/05/28 09:29:49;;;;;;;13.38;4.20;;;22.00;50.50;;;21.20;39.89;100930.50;5044549;28;20072;-84
2023/05/28 09:32:20;;;;;;;10.05;4.13;;;21.90;49.80;;;21.20;40.53;100931.31;5026714;28;20617;-86
2023/05/28 09:34:50;;;;;;;12.18;4.15;;;21.90;50.60;;;21.25;40.60;100938.66;5029276;28;20290;-84
2023/05/28 09:37:21;;;;;;;12.90;4.13;;;22.00;50.50;;;21.24;40.24;100931.59;5045388;28;20056;-85
2023/05/28 09:39:48;;;;;;;10.73;4.60;;;22.00;50.10;;;21.23;40.63;100940.84;5043545;28;20071;-84
2023/05/28 09:42:17;;;;;;;9.60;3.88;;;21.90;50.20;;;21.23;39.87;100936.22;5047193;28;20383;-85
2023/05/28 09:44:44;;;;;;;10.27;4.35;;;21.80;49.40;;;21.23;39.40;100927.28;5047389;28;20049;-85
2023/05/28 09:47:15;;;;;;;11.13;3.78;;;21.90;48.70;;;21.25;39.89;100931.31;5047996;28;20479;-84
2023/05/28 09:49:45;;;;;;;12.70;4.47;;;22.00;49.40;;;21.26;39.13;100922.09;5044493;28;20041;-84
2023/05/28 09:52:20;;;;;;;11.10;4.47;;;21.90;48.40;;;21.20;39.10;100919.66;5047607;28;20059;-85
2023/05/28 09:54:51;;;;;;;13.65;4.47;;;21.90;48.80;;;21.19;39.90;100920.75;5022742;28;20045;-85
2023/05/28 09:57:23;;;;;;;12.40;4.65;;;21.90;49.40;;;21.20;39.32;100922.38;5047872;28;20048;-85
2023/05/28 09:59:54;;;;;;;12.43;4.38;;;21.90;48.60;;;21.21;40.44;100916.66;5047615;28;20450;-85
2023/05/28 10:02:33;;;;;;;9.48;4.15;;;21.90;50.40;;;21.31;39.78;100922.13;5047414;28;20049;-83
2023/05/28 10:05:08;;;;;;;12.43;4.85;;;22.00;49.20;;;21.31;39.10;100926.75;5048451;28;20088;-83
2023/05/28 10:07:38;;;;;;;11.50;4.43;;;22.00;48.30;;;21.26;38.29;100913.16;5045109;28;20044;-84
2023/05/28 10:10:09;;;;;;;10.63;3.70;;;22.00;47.60;;;21.24;38.20;100921.56;5047564;28;20571;-82
2023/05/28 10:12:37;;;;;;;14.77;4.60;;;21.90;47.60;;;21.22;38.86;100934.56;5039503;28;20037;-86
2023/05/28 10:15:07;;;;;;;10.10;4.13;;;21.90;48.40;;;21.18;38.75;100924.53;5048097;28;20517;-84
2023/05/28 10:17:35;;;;;;;12.50;4.15;;;21.90;47.90;;;21.18;38.66;100919.94;5048152;28;20045;-82